Time;durP1;ratioP1;P1;durP2;ratioP2;P2;SDS_P1;SDS_P2;PMS_P1;PMS_P2;Temp;Humidity;BMP_temperature;BMP_pressure;BME280_temperature;BME280_humidity;BME280_pressure;Samples;Min_cycle;Max_cycle;Signal;HPM_P1;HPM_P2
2022/07/03 00:02:10;;;;;;;0.40;0.40;;;17.70;64.20;;;18.14;48.41;95398.34;5069713;28;20209;-78
2022/07/03 00:04:37;;;;;;;0.50;0.50;;;17.70;64.50;;;18.12;48.51;95395.13;5039440;28;20727;-79
2022/07/03 00:07:05;;;;;;;0.60;0.60;;;17.60;64.30;;;18.06;48.41;95394.16;5052117;28;20200;-77
2022/07/03 00:09:32;;;;;;;0.50;0.50;;;17.60;64.50;;;18.07;48.40;95393.94;5037994;28;20673;-77
2022/07/03 00:11:59;;;;;;;0.57;0.57;;;17.60;64.40;;;18.03;48.75;95379.50;5072842;28;20214;-78
2022/07/03 00:14:26;;;;;;;0.50;0.50;;;17.50;64.50;;;18.00;48.74;95379.94;5053209;28;20207;-77
2022/07/03 00:16:54;;;;;;;0.50;0.50;;;17.50;64.60;;;17.99;48.92;95381.00;5070857;28;20218;-78
2022/07/03 00:19:21;;;;;;;0.50;0.50;;;17.50;64.70;;;17.96;49.16;95378.78;5072744;28;20660;-78
2022/07/03 00:21:56;;;;;;;0.50;0.50;;;17.50;64.60;;;17.92;48.79;95372.31;5043076;28;20195;-78
2022/07/03 00:24:37;;;;;;;0.50;0.50;;;17.40;65.70;;;17.88;49.15;95363.97;5052695;28;20287;-77
2022/07/03 00:27:08;;;;;;;0.50;0.50;;;17.40;65.60;;;17.86;49.26;95367.91;5067668;28;20203;-78
2022/07/03 00:29:42;;;;;;;0.50;0.50;;;17.40;65.00;;;17.82;49.39;95364.88;5048656;28;20210;-78
2022/07/03 00:32:19;;;;;;;0.50;0.50;;;17.30;65.10;;;17.77;49.22;95357.59;5054261;28;20206;-78
2022/07/03 00:34:49;;;;;;;0.40;0.40;;;17.30;65.70;;;17.74;49.00;95368.66;5076604;28;20322;-77
2022/07/03 00:37:16;;;;;;;0.50;0.50;;;17.30;65.00;;;17.72;49.04;95372.56;5067292;28;20601;-78
2022/07/03 00:39:44;;;;;;;0.50;0.50;;;17.20;65.00;;;17.68;48.98;95368.75;5071624;28;20225;-78
2022/07/03 00:42:13;;;;;;;0.60;0.60;;;17.20;65.10;;;17.64;49.28;95378.19;5043778;28;20195;-77
2022/07/03 00:44:51;;;;;;;0.50;0.50;;;17.10;65.20;;;17.61;49.84;95379.44;5066629;28;20226;-78
2022/07/03 00:47:24;;;;;;;0.60;0.60;;;17.20;66.20;;;17.56;49.64;95372.16;5052962;28;20268;-78
2022/07/03 00:49:55;;;;;;;0.52;0.52;;;17.10;65.50;;;17.53;49.49;95363.88;5071402;28;20213;-77
2022/07/03 00:52:23;;;;;;;0.50;0.50;;;17.10;65.60;;;17.51;49.38;95360.63;5088207;28;20202;-77
2022/07/03 00:54:54;;;;;;;0.50;0.50;;;17.00;65.30;;;17.47;49.57;95348.81;5055520;28;20215;-78
2022/07/03 00:57:24;;;;;;;0.70;0.70;;;17.00;65.50;;;17.44;49.97;95344.78;5053900;28;20248;-78
2022/07/03 00:59:52;;;;;;;0.55;0.55;;;17.00;65.40;;;17.39;49.35;95340.16;5071885;28;20207;-77
2022/07/03 01:02:38;;;;;;;0.60;0.60;;;16.90;65.30;;;17.35;50.08;95340.84;5067023;28;20199;-78
2022/07/03 01:05:22;;;;;;;0.50;0.50;;;16.90;66.20;;;17.28;50.08;95338.25;5068644;28;20301;-78
2022/07/03 01:08:19;;;;;;;0.50;0.50;;;16.90;66.40;;;17.21;49.86;95338.34;5067837;28;20207;-78
2022/07/03 01:11:21;;;;;;;0.60;0.60;;;16.80;66.30;;;17.20;50.08;95354.47;5051870;28;20211;-78
2022/07/03 01:14:26;;;;;;;0.50;0.50;;;16.80;66.30;;;17.10;49.96;95353.16;5070255;28;20226;-78
2022/07/03 01:17:05;;;;;;;0.50;0.50;;;16.80;66.00;;;17.09;50.68;95364.00;5028113;28;20200;-77
2022/07/03 01:19:46;;;;;;;0.50;0.50;;;16.70;66.10;;;17.01;50.41;95354.47;5033967;28;20222;-77
2022/07/03 01:22:36;;;;;;;0.50;0.50;;;16.70;66.30;;;16.95;50.00;95350.06;5050676;28;20297;-77
2022/07/03 01:25:31;;;;;;;0.60;0.60;;;16.60;66.30;;;16.90;50.49;95350.69;5065240;28;20289;-78
2022/07/03 01:28:11;;;;;;;0.50;0.50;;;16.50;66.30;;;16.83;50.72;95352.59;5065035;28;20305;-76
2022/07/03 01:30:47;;;;;;;0.60;0.60;;;16.50;66.40;;;16.78;50.60;95345.34;5052614;28;20650;-78
2022/07/03 01:33:31;;;;;;;0.50;0.50;;;16.40;66.50;;;16.74;50.87;95344.13;5051250;28;20206;-78
2022/07/03 01:36:01;;;;;;;0.50;0.50;;;16.40;67.00;;;16.72;50.93;95346.22;5035882;28;20267;-79
2022/07/03 01:38:31;;;;;;;0.60;0.60;;;16.40;66.70;;;16.71;51.02;95349.88;5067245;28;20255;-77
2022/07/03 01:40:59;;;;;;;0.50;0.50;;;16.30;66.30;;;16.68;50.84;95342.38;5054904;28;20219;-77
2022/07/03 01:43:32;;;;;;;0.50;0.50;;;16.30;66.30;;;16.66;51.27;95349.72;5049749;28;20199;-77
2022/07/03 01:46:03;;;;;;;0.50;0.50;;;16.30;67.30;;;16.62;51.03;95341.41;5048219;28;20255;-78
2022/07/03 01:48:33;;;;;;;0.50;0.50;;;16.20;67.00;;;16.60;51.23;95340.00;5045234;28;20199;-78
2022/07/03 01:51:01;;;;;;;0.60;0.60;;;16.20;66.70;;;16.58;51.52;95348.16;5035403;28;20230;-77
2022/07/03 01:53:30;;;;;;;0.40;0.40;;;16.20;66.90;;;16.55;51.48;95342.50;5033239;28;20203;-78
2022/07/03 01:56:00;;;;;;;0.60;0.60;;;16.10;67.10;;;16.54;51.60;95340.88;5056299;28;20309;-78
2022/07/03 01:58:27;;;;;;;0.50;0.50;;;16.20;67.30;;;16.53;51.42;95339.25;5035812;28;20685;-78
2022/07/03 02:01:21;;;;;;;0.50;0.50;;;16.10;66.90;;;16.49;51.58;95341.56;5066548;28;20219;-77
2022/07/03 02:04:24;;;;;;;0.60;0.60;;;16.10;68.00;;;16.43;51.43;95337.94;5036738;28;20282;-78
2022/07/03 02:07:02;;;;;;;0.60;0.60;;;16.10;67.70;;;16.44;51.53;95328.13;5043915;28;20191;-78
2022/07/03 02:09:44;;;;;;;0.40;0.40;;;16.10;66.80;;;16.41;51.74;95323.28;5036303;28;20206;-77
2022/07/03 02:12:14;;;;;;;0.50;0.50;;;16.00;68.00;;;16.39;51.67;95323.47;5053209;28;20277;-78
2022/07/03 02:14:58;;;;;;;0.50;0.50;;;16.10;67.30;;;16.37;51.71;95328.22;5072040;28;20221;-78
2022/07/03 02:17:32;;;;;;;0.60;0.60;;;16.00;67.80;;;16.35;51.81;95319.66;5052674;28;20218;-78
2022/07/03 02:20:07;;;;;;;0.70;0.70;;;15.90;67.50;;;16.31;52.09;95319.28;5057350;28;20317;-78
2022/07/03 02:22:42;;;;;;;0.52;0.52;;;15.90;68.00;;;16.28;51.81;95319.75;5032738;28;20199;-78
2022/07/03 02:25:22;;;;;;;0.50;0.50;;;15.90;67.50;;;16.25;52.12;95325.44;5043862;28;20303;-78
2022/07/03 02:28:05;;;;;;;0.52;0.52;;;15.90;68.30;;;16.22;52.28;95323.25;5070267;28;20198;-77
2022/07/03 02:30:39;;;;;;;0.60;0.60;;;15.90;68.50;;;16.17;52.18;95320.44;5037051;28;20257;-78
2022/07/03 02:33:08;;;;;;;0.50;0.50;;;15.80;68.00;;;16.16;52.15;95327.56;5069884;28;20202;-78
2022/07/03 02:35:35;;;;;;;0.60;0.60;;;15.70;67.50;;;16.13;52.13;95321.91;5053606;28;20641;-77
2022/07/03 02:38:16;;;;;;;0.50;0.50;;;15.70;67.50;;;16.10;52.42;95319.66;5072672;28;20305;-77
2022/07/03 02:41:06;;;;;;;0.55;0.55;;;15.70;68.60;;;16.07;52.63;95320.91;5057677;28;20210;-77
2022/07/03 02:43:47;;;;;;;0.57;0.57;;;15.70;68.00;;;16.01;52.55;95324.44;5073536;28;20187;-78
2022/07/03 02:46:49;;;;;;;0.68;0.68;;;15.70;68.50;;;15.98;52.36;95327.53;5070891;28;20278;-78
2022/07/03 02:49:50;;;;;;;0.50;0.50;;;15.60;68.60;;;15.92;52.57;95315.16;5045888;28;20253;-78
2022/07/03 02:52:38;;;;;;;0.60;0.60;;;15.60;68.80;;;15.90;52.46;95322.47;5035575;28;20199;-78
2022/07/03 02:55:45;;;;;;;0.70;0.70;;;15.50;67.70;;;15.86;52.77;95321.31;5068237;28;20222;-78
2022/07/03 02:58:48;;;;;;;0.57;0.57;;;15.50;68.90;;;15.81;52.76;95328.00;5055683;28;20277;-77
2022/07/03 03:01:34;;;;;;;0.60;0.60;;;15.50;69.00;;;15.77;53.06;95324.19;5049361;28;20249;-77
2022/07/03 03:04:14;;;;;;;0.60;0.60;;;15.50;69.00;;;15.77;53.50;95326.81;5057042;28;20213;-78
2022/07/03 03:06:51;;;;;;;0.57;0.57;;;15.40;69.30;;;15.76;53.38;95327.84;5069628;28;20602;-78
2022/07/03 03:09:27;;;;;;;0.40;0.40;;;15.40;68.60;;;15.76;53.54;95329.66;5061787;28;20297;-77
2022/07/03 03:12:05;;;;;;;0.60;0.60;;;15.40;70.30;;;15.75;53.03;95326.22;5042098;28;20211;-78
2022/07/03 03:14:48;;;;;;;0.70;0.70;;;15.30;69.50;;;15.73;53.55;95328.25;5073619;28;20561;-77
2022/07/03 03:17:24;;;;;;;0.50;0.50;;;15.40;69.70;;;15.74;53.73;95327.22;5039453;28;20206;-75
2022/07/03 03:19:56;;;;;;;0.52;0.52;;;15.40;69.80;;;15.75;53.78;95328.84;5072763;28;20574;-77
2022/07/03 03:23:08;;;;;;;0.60;0.60;;;15.40;69.00;;;15.78;53.70;95332.91;5069415;28;20718;-78
2022/07/03 03:25:37;;;;;;;0.60;0.60;;;15.40;70.20;;;15.78;53.54;95328.44;5070309;28;20227;-78
2022/07/03 03:28:04;;;;;;;0.60;0.60;;;15.40;69.00;;;15.80;53.82;95330.88;5056748;28;20594;-77
2022/07/03 03:30:31;;;;;;;0.70;0.70;;;15.50;69.20;;;15.83;54.13;95330.47;5073213;28;20226;-77
2022/07/03 03:32:59;;;;;;;0.70;0.70;;;15.40;69.10;;;15.84;53.97;95334.72;5066384;28;20570;-78
2022/07/03 03:35:26;;;;;;;0.60;0.60;;;15.50;69.30;;;15.87;54.10;95336.94;5031092;28;20223;-78
2022/07/03 03:37:53;;;;;;;0.60;0.60;;;15.40;69.40;;;15.90;54.25;95339.16;5065659;28;20226;-78
2022/07/03 03:40:21;;;;;;;0.50;0.50;;;15.50;69.70;;;15.93;54.05;95348.50;5036214;28;20353;-78
2022/07/03 03:42:48;;;;;;;0.40;0.40;;;15.50;69.60;;;15.96;54.23;95340.16;5052212;28;20196;-77
2022/07/03 03:45:15;;;;;;;0.50;0.50;;;15.60;69.80;;;15.98;54.34;95336.25;5068521;28;20317;-78
2022/07/03 03:47:42;;;;;;;0.60;0.60;;;15.60;69.80;;;16.05;54.42;95338.03;5052003;28;20250;-77
2022/07/03 03:50:10;;;;;;;0.70;0.70;;;15.60;69.80;;;16.08;54.52;95346.34;5046492;28;20219;-77
2022/07/03 03:52:38;;;;;;;0.40;0.40;;;15.60;70.10;;;16.13;54.62;95340.41;5047376;28;20211;-78
2022/07/03 03:55:05;;;;;;;0.50;0.50;;;15.70;70.00;;;16.16;54.55;95340.81;5050353;28;20304;-78
2022/07/03 03:57:34;;;;;;;0.57;0.57;;;15.70;70.10;;;16.20;54.82;95343.81;5047787;28;20226;-77
2022/07/03 04:00:03;;;;;;;0.50;0.50;;;15.80;70.20;;;16.24;54.92;95344.22;5059859;28;20722;-77
2022/07/03 04:02:38;;;;;;;0.60;0.60;;;15.80;70.20;;;16.29;54.93;95347.00;5066254;28;20194;-78
2022/07/03 04:05:06;;;;;;;0.60;0.60;;;16.00;70.30;;;16.35;54.86;95347.97;5060895;28;20221;-77
2022/07/03 04:07:33;;;;;;;0.60;0.60;;;16.00;70.50;;;16.38;55.01;95343.06;5070074;28;20183;-78
2022/07/03 04:10:00;;;;;;;0.60;0.60;;;16.00;70.50;;;16.46;55.02;95355.22;5056801;28;20253;-79
2022/07/03 04:12:27;;;;;;;0.50;0.50;;;16.10;70.60;;;16.52;54.96;95350.88;5044403;28;20237;-79
2022/07/03 04:14:58;;;;;;;0.57;0.57;;;16.10;70.70;;;16.59;55.22;95354.28;5042853;28;20216;-79
2022/07/03 04:17:26;;;;;;;0.50;0.50;;;16.20;71.10;;;16.65;55.41;95361.34;5064955;28;20206;-79
2022/07/03 04:19:54;;;;;;;0.50;0.50;;;16.30;71.00;;;16.70;55.26;95355.38;5053374;28;20234;-79
2022/07/03 04:22:21;;;;;;;0.60;0.60;;;16.30;70.90;;;16.77;55.44;95356.13;5061602;28;20203;-79
2022/07/03 04:24:48;;;;;;;0.60;0.60;;;16.40;71.00;;;16.81;55.26;95357.31;5040700;28;20590;-79
2022/07/03 04:27:15;;;;;;;0.52;0.52;;;16.40;71.00;;;16.90;55.55;95353.34;5071067;28;20744;-79
2022/07/03 04:29:42;;;;;;;0.70;0.70;;;16.50;71.20;;;16.96;55.67;95359.63;5067762;28;20211;-78
2022/07/03 04:32:10;;;;;;;0.45;0.45;;;16.60;71.30;;;17.03;55.62;95357.72;5052105;28;20214;-79
2022/07/03 04:34:37;;;;;;;0.50;0.50;;;16.60;71.30;;;17.09;55.88;95359.47;5055606;28;20815;-79
2022/07/03 04:37:04;;;;;;;0.60;0.60;;;16.70;71.30;;;17.18;55.81;95359.19;5037597;28;20210;-79
2022/07/03 04:39:32;;;;;;;0.70;0.70;;;16.70;71.30;;;17.24;55.80;95356.44;5050570;28;20215;-79
2022/07/03 04:41:59;;;;;;;0.50;0.50;;;16.80;71.30;;;17.31;56.04;95350.25;5061083;28;20191;-79
2022/07/03 04:44:26;;;;;;;0.50;0.50;;;16.90;72.20;;;17.34;56.10;95355.91;5051888;28;20234;-78
2022/07/03 04:46:53;;;;;;;0.50;0.50;;;17.00;71.30;;;17.43;56.10;95365.19;5062554;28;20653;-79
2022/07/03 04:49:20;;;;;;;0.50;0.50;;;17.10;71.50;;;17.48;55.70;95353.09;5069606;28;20568;-78
2022/07/03 04:51:47;;;;;;;0.50;0.50;;;17.10;71.40;;;17.58;56.07;95358.69;5053563;28;20202;-79
2022/07/03 04:54:14;;;;;;;0.60;0.60;;;17.20;71.40;;;17.64;56.00;95359.63;5039095;28;20328;-78
2022/07/03 04:56:41;;;;;;;0.50;0.50;;;17.30;71.50;;;17.68;55.58;95360.81;5079109;28;20755;-79
2022/07/03 04:59:09;;;;;;;0.50;0.50;;;17.40;71.60;;;17.79;56.15;95367.97;5043510;28;20248;-79
2022/07/03 05:01:36;;;;;;;0.50;0.50;;;17.40;71.50;;;17.87;55.83;95372.16;5053672;28;20688;-78
2022/07/03 05:04:04;;;;;;;0.75;0.75;;;17.50;71.50;;;17.93;56.37;95357.97;5050878;28;20197;-77
2022/07/03 05:06:31;;;;;;;0.50;0.50;;;17.60;71.50;;;18.00;56.17;95353.41;5054157;28;20230;-79
2022/07/03 05:08:58;;;;;;;0.55;0.55;;;17.60;71.50;;;18.08;55.89;95354.94;5060269;28;20194;-79
2022/07/03 05:11:26;;;;;;;0.50;0.50;;;17.80;71.70;;;18.16;56.06;95356.44;5022200;28;20231;-79
2022/07/03 05:13:53;;;;;;;0.50;0.50;;;17.90;71.70;;;18.21;56.34;95353.91;5051618;28;20207;-78
2022/07/03 05:16:20;;;;;;;0.52;0.52;;;17.90;71.70;;;18.32;56.05;95368.25;5036270;28;20230;-79
2022/07/03 05:18:47;;;;;;;0.50;0.50;;;18.00;71.70;;;18.38;56.32;95364.66;5040647;28;20250;-78
2022/07/03 05:21:14;;;;;;;0.40;0.40;;;18.00;71.50;;;18.46;56.13;95372.31;5025639;28;20219;-78
2022/07/03 05:23:41;;;;;;;0.50;0.50;;;18.10;71.60;;;18.53;55.79;95372.19;5049946;28;20656;-79
2022/07/03 05:26:08;;;;;;;0.43;0.43;;;18.20;71.60;;;18.61;56.06;95374.50;5048330;28;20223;-78
2022/07/03 05:28:35;;;;;;;0.60;0.60;;;18.30;71.60;;;18.68;56.14;95369.88;5065417;28;20202;-79
2022/07/03 05:31:03;;;;;;;0.50;0.50;;;18.40;71.70;;;18.74;56.15;95360.19;5050921;28;20215;-80
2022/07/03 05:33:31;;;;;;;0.50;0.50;;;18.60;71.80;;;18.83;56.09;95364.09;5030247;28;20238;-80
2022/07/03 05:35:59;;;;;;;0.50;0.50;;;18.50;71.60;;;18.91;55.92;95365.63;5042350;28;20227;-79
2022/07/03 05:41:13;;;;;;;0.50;0.50;;;18.70;71.80;;;19.06;56.03;95367.78;5038964;28;20309;-80
2022/07/03 05:43:41;;;;;;;0.40;0.40;;;18.80;71.80;;;19.17;56.26;95372.28;5049406;28;20682;-79
2022/07/03 05:46:08;;;;;;;0.52;0.52;;;18.80;71.70;;;19.26;56.71;95359.44;5062494;28;20245;-79
2022/07/03 05:48:36;;;;;;;0.50;0.50;;;19.00;71.80;;;19.33;56.65;95356.63;5053575;28;20202;-78
2022/07/03 05:51:04;;;;;;;0.50;0.50;;;19.00;71.80;;;19.42;56.16;95357.88;5053930;28;20223;-78
2022/07/03 05:53:31;;;;;;;0.50;0.50;;;19.10;71.60;;;19.55;56.19;95361.31;5052041;28;20209;-79
2022/07/03 05:55:58;;;;;;;0.40;0.40;;;19.30;71.80;;;19.62;56.60;95357.44;5044568;28;20238;-79
2022/07/03 05:58:26;;;;;;;0.50;0.50;;;19.30;71.60;;;19.70;56.48;95350.13;5043765;28;20226;-79
2022/07/03 06:00:53;;;;;;;0.50;0.50;;;19.40;71.60;;;19.79;56.24;95364.69;5034296;28;20227;-78
2022/07/03 06:03:21;;;;;;;0.43;0.43;;;19.50;71.50;;;19.87;56.12;95369.63;5053579;28;20656;-79
2022/07/03 06:05:48;;;;;;;0.40;0.40;;;19.70;71.40;;;19.94;55.88;95364.16;5035998;28;20231;-78
2022/07/03 06:08:15;;;;;;;0.40;0.40;;;19.70;71.20;;;20.00;56.03;95360.53;5037904;28;20194;-79
2022/07/03 06:10:42;;;;;;;0.60;0.60;;;19.80;71.30;;;20.02;56.15;95360.28;5049301;28;20207;-78
2022/07/03 06:13:09;;;;;;;0.40;0.40;;;19.80;71.20;;;20.12;56.26;95363.94;5061444;28;20285;-80
2022/07/03 06:15:36;;;;;;;0.60;0.60;;;20.00;71.30;;;20.19;55.47;95369.13;5069575;28;20788;-79
2022/07/03 06:18:04;;;;;;;0.47;0.47;;;20.00;71.20;;;20.26;55.93;95376.94;5052837;28;20652;-79
2022/07/03 06:20:31;;;;;;;0.57;0.57;;;20.00;71.20;;;20.30;56.22;95362.91;5067124;28;20222;-79
2022/07/03 06:22:58;;;;;;;0.45;0.45;;;20.10;71.20;;;20.38;55.92;95367.03;5052370;28;20218;-79
2022/07/03 06:25:25;;;;;;;0.45;0.45;;;20.20;71.30;;;20.46;56.08;95374.63;5055274;28;20277;-79
2022/07/03 06:27:52;;;;;;;0.50;0.50;;;20.30;71.30;;;20.57;55.77;95375.59;5051962;28;20218;-79
2022/07/03 06:30:19;;;;;;;0.50;0.50;;;20.30;71.30;;;20.64;55.71;95368.22;5050589;28;20226;-78
2022/07/03 06:32:47;;;;;;;0.40;0.40;;;20.40;71.40;;;20.73;55.65;95363.31;5036015;28;20194;-78
2022/07/03 06:35:14;;;;;;;0.40;0.40;;;20.50;71.20;;;20.81;55.67;95353.28;5050569;28;20218;-77
2022/07/03 06:37:41;;;;;;;0.40;0.40;;;20.60;71.20;;;20.91;55.35;95367.56;5045241;28;20210;-78
2022/07/03 06:40:09;;;;;;;0.40;0.40;;;20.70;70.90;;;20.99;55.42;95369.00;5068383;28;20280;-78
2022/07/03 06:42:36;;;;;;;0.40;0.40;;;20.70;70.60;;;21.05;55.03;95361.88;5069032;28;20224;-79
2022/07/03 06:45:03;;;;;;;0.40;0.40;;;20.80;70.50;;;21.13;55.50;95364.13;5053589;28;20251;-78
2022/07/03 06:47:31;;;;;;;0.40;0.40;;;20.90;70.20;;;21.21;55.11;95376.22;5048145;28;20217;-78
2022/07/03 06:49:58;;;;;;;0.40;0.40;;;21.00;70.10;;;21.26;54.82;95368.28;5059912;28;20790;-78
2022/07/03 06:52:26;;;;;;;0.40;0.40;;;21.10;70.10;;;21.34;54.88;95367.03;5052773;28;20213;-79
2022/07/03 06:54:53;;;;;;;0.40;0.40;;;21.20;70.10;;;21.42;54.77;95358.59;5039615;28;20222;-78
2022/07/03 06:57:20;;;;;;;0.40;0.40;;;21.20;70.00;;;21.50;54.47;95368.81;5050960;28;20211;-78
2022/07/03 06:59:48;;;;;;;0.47;0.47;;;21.30;70.00;;;21.59;54.02;95372.72;5048767;28;20598;-79
2022/07/03 07:02:15;;;;;;;0.40;0.40;;;21.40;69.80;;;21.67;54.86;95370.66;5051210;28;20245;-78
2022/07/03 07:04:43;;;;;;;0.40;0.40;;;21.40;69.80;;;21.73;54.14;95369.66;5045792;28;20216;-78
2022/07/03 07:07:10;;;;;;;0.45;0.45;;;21.50;69.60;;;21.79;54.37;95365.97;5050977;28;20272;-79
2022/07/03 07:09:39;;;;;;;0.47;0.47;;;21.60;69.60;;;21.87;54.42;95365.53;5032554;28;20275;-78
2022/07/03 07:12:06;;;;;;;0.30;0.30;;;21.60;69.60;;;21.94;54.24;95370.66;5050449;28;20331;-79
2022/07/03 07:14:33;;;;;;;0.30;0.30;;;21.70;69.50;;;22.01;53.67;95373.13;5049227;28;20196;-78
2022/07/03 07:17:00;;;;;;;0.40;0.40;;;21.80;69.30;;;22.09;54.06;95366.50;5058209;28;20211;-80
2022/07/03 07:19:28;;;;;;;0.40;0.40;;;21.90;69.60;;;22.15;53.85;95366.28;5041371;28;20642;-78
2022/07/03 07:21:55;;;;;;;0.40;0.40;;;22.00;69.50;;;22.23;54.13;95360.50;5060441;28;20201;-80
2022/07/03 07:24:22;;;;;;;0.40;0.40;;;22.00;69.30;;;22.31;53.91;95358.41;5053988;28;20198;-78
2022/07/03 07:26:49;;;;;;;0.40;0.40;;;22.10;69.20;;;22.40;53.54;95351.56;5072618;28;20656;-78
2022/07/03 07:29:16;;;;;;;0.40;0.40;;;22.20;69.10;;;22.45;53.69;95348.94;5041126;28;20211;-79
2022/07/03 07:31:43;;;;;;;0.40;0.40;;;22.20;69.40;;;22.56;53.61;95352.50;5063292;28;20187;-80
2022/07/03 07:34:11;;;;;;;0.40;0.40;;;22.30;69.20;;;22.64;53.61;95349.34;5056390;28;20225;-79
2022/07/03 07:36:39;;;;;;;0.35;0.35;;;22.40;69.20;;;22.70;53.22;95339.47;5068199;28;20216;-80
2022/07/03 07:39:07;;;;;;;0.40;0.40;;;22.50;69.00;;;22.77;53.25;95350.75;5040873;28;20584;-79
2022/07/03 07:41:34;;;;;;;0.30;0.30;;;22.50;68.60;;;22.84;52.48;95342.50;5033425;28;20229;-79
2022/07/03 07:44:01;;;;;;;0.40;0.40;;;22.60;68.20;;;22.88;52.78;95343.59;5056227;28;20203;-80
2022/07/03 07:46:29;;;;;;;0.40;0.40;;;22.70;68.40;;;22.93;52.67;95345.50;5054090;28;20272;-79
2022/07/03 07:48:57;;;;;;;0.40;0.40;;;22.70;68.00;;;22.98;52.66;95348.19;5070291;28;20207;-79
2022/07/03 07:51:24;;;;;;;0.40;0.40;;;22.80;68.10;;;23.05;52.23;95346.09;5052627;28;20227;-78
2022/07/03 07:53:57;;;;;;;0.40;0.40;;;22.90;68.00;;;23.14;52.68;95352.56;5064710;28;20195;-80
2022/07/03 07:56:26;;;;;;;0.32;0.32;;;22.90;68.10;;;23.20;52.68;95334.66;5070934;28;20326;-80
2022/07/03 07:58:53;;;;;;;0.40;0.40;;;23.00;67.90;;;23.27;52.01;95343.25;5070066;28;20207;-78
2022/07/03 08:07:03;;;;;;;0.40;0.40;;;23.20;67.40;;;23.48;51.16;95341.44;5044699;28;20306;-78
2022/07/03 08:09:30;;;;;;;0.40;0.40;;;23.30;66.80;;;23.54;51.09;95338.81;5072682;28;20230;-78
2022/07/03 08:11:57;;;;;;;0.40;0.40;;;23.30;66.50;;;23.60;50.91;95341.22;5069746;28;20271;-77
2022/07/03 08:14:24;;;;;;;0.40;0.40;;;23.40;66.60;;;23.69;51.16;95338.03;5042782;28;20265;-78
2022/07/03 08:16:51;;;;;;;0.40;0.40;;;23.40;67.30;;;23.74;51.08;95333.50;5073225;28;20187;-79
2022/07/03 08:19:18;;;;;;;0.40;0.40;;;23.50;66.30;;;23.82;50.69;95346.34;5071805;28;20227;-79
2022/07/03 08:21:45;;;;;;;0.40;0.40;;;23.60;66.40;;;23.87;50.52;95339.41;5053760;28;20622;-79
2022/07/03 08:24:12;;;;;;;0.35;0.35;;;23.60;66.30;;;23.90;50.93;95341.56;5053035;28;20654;-78
2022/07/03 08:26:40;;;;;;;0.40;0.40;;;23.60;66.40;;;24.01;50.70;95343.22;5051301;28;20229;-79
2022/07/03 08:29:07;;;;;;;0.40;0.40;;;23.70;66.40;;;24.06;50.44;95345.09;5051147;28;20257;-78
2022/07/03 08:31:34;;;;;;;0.30;0.30;;;23.80;66.50;;;24.12;50.33;95341.34;5035116;28;20646;-79
2022/07/03 08:34:03;;;;;;;0.30;0.30;;;23.90;66.60;;;24.20;50.44;95350.72;5066429;28;20199;-79
2022/07/03 08:36:30;;;;;;;0.30;0.30;;;23.90;66.50;;;24.28;50.25;95350.22;5041176;28;20227;-79
2022/07/03 08:38:59;;;;;;;0.30;0.30;;;24.00;66.60;;;24.35;50.55;95345.38;5068867;28;20571;-79
2022/07/03 08:41:27;;;;;;;0.30;0.30;;;24.10;66.70;;;24.41;50.22;95347.00;5054134;28;20222;-78
2022/07/03 08:43:56;;;;;;;0.50;0.50;;;24.10;66.70;;;24.49;50.05;95350.22;5055242;28;20665;-78
2022/07/03 08:46:24;;;;;;;0.30;0.30;;;24.20;66.80;;;24.54;50.17;95345.63;5055628;28;20693;-79
2022/07/03 08:48:53;;;;;;;0.50;0.50;;;24.30;66.70;;;24.60;50.39;95341.06;5052109;28;20199;-79
2022/07/03 08:51:21;;;;;;;0.40;0.40;;;24.40;66.90;;;24.69;50.41;95335.97;5035381;28;20273;-78
2022/07/03 08:53:48;;;;;;;0.30;0.30;;;24.50;66.70;;;24.81;49.96;95344.53;5067595;28;20228;-78
2022/07/03 08:56:15;;;;;;;0.35;0.35;;;24.50;66.20;;;24.88;50.11;95342.38;5071700;28;20219;-78
2022/07/03 08:58:42;;;;;;;0.30;0.30;;;24.60;66.50;;;24.97;49.97;95331.09;5060852;28;20290;-79
2022/07/03 09:01:15;;;;;;;0.30;0.30;;;24.60;66.40;;;25.07;50.09;95331.03;5052254;28;20241;-79
2022/07/03 09:03:45;;;;;;;0.30;0.30;;;24.70;66.50;;;25.19;49.83;95334.22;5054408;28;20552;-78
2022/07/03 09:06:13;;;;;;;0.40;0.40;;;24.90;66.40;;;25.30;49.70;95345.72;5071745;28;20273;-79
2022/07/03 09:08:41;;;;;;;0.57;0.57;;;24.90;66.10;;;25.36;49.45;95347.31;5036792;28;20203;-79
2022/07/03 09:11:08;;;;;;;0.40;0.40;;;25.00;65.80;;;25.45;49.23;95344.09;5034337;28;20639;-79
2022/07/03 09:13:36;;;;;;;0.30;0.30;;;25.10;65.30;;;25.49;48.48;95329.84;5067631;28;20232;-79
2022/07/03 09:16:04;;;;;;;0.40;0.40;;;25.10;65.50;;;25.55;49.28;95333.31;5052753;28;20223;-79
2022/07/03 09:18:43;;;;;;;0.30;0.30;;;25.20;65.30;;;25.62;47.81;95325.75;5070026;28;20700;-80
2022/07/03 09:21:10;;;;;;;0.32;0.32;;;25.30;64.70;;;25.65;47.95;95335.13;5065996;28;20251;-79
2022/07/03 09:23:40;;;;;;;0.60;0.60;;;25.40;64.40;;;25.71;48.01;95325.97;5051173;28;20289;-79
2022/07/03 09:26:19;;;;;;;0.30;0.30;;;25.50;64.50;;;25.77;47.71;95327.53;5042959;28;20221;-78
2022/07/03 09:28:53;;;;;;;0.30;0.30;;;25.50;64.20;;;25.81;47.98;95317.81;5054929;28;20345;-79
2022/07/03 09:31:27;;;;;;;0.30;0.30;;;25.50;64.30;;;25.87;47.77;95314.03;5048917;28;20256;-79
2022/07/03 09:34:09;;;;;;;0.30;0.30;;;25.60;64.40;;;25.97;47.73;95323.91;5050105;28;20669;-79
2022/07/03 09:36:48;;;;;;;0.30;0.30;;;25.70;64.10;;;26.07;47.97;95323.06;5055226;28;20244;-79
2022/07/03 09:39:25;;;;;;;0.30;0.30;;;25.70;64.60;;;26.14;47.51;95328.91;5044771;28;20700;-79
2022/07/03 09:41:59;;;;;;;0.30;0.30;;;25.80;64.20;;;26.21;47.67;95320.53;5034201;28;20545;-80
2022/07/03 09:44:46;;;;;;;0.28;0.28;;;25.90;64.00;;;26.30;47.69;95324.22;5052464;28;20228;-79
2022/07/03 09:47:22;;;;;;;0.30;0.30;;;25.90;64.00;;;26.38;47.66;95314.75;5024970;28;20199;-79
2022/07/03 09:49:58;;;;;;;0.30;0.30;;;26.10;64.30;;;26.46;47.17;95318.72;5046232;28;20226;-79
2022/07/03 09:52:42;;;;;;;0.30;0.30;;;26.10;63.80;;;26.55;47.22;95318.88;5071156;28;20646;-80
2022/07/03 09:55:09;;;;;;;0.25;0.25;;;26.20;63.40;;;26.58;46.81;95312.97;5053876;28;20644;-79
2022/07/03 09:57:56;;;;;;;0.22;0.22;;;26.20;63.80;;;26.64;46.70;95317.19;5064266;28;20195;-79
2022/07/03 10:00:26;;;;;;;0.30;0.30;;;26.30;63.40;;;26.71;46.60;95311.47;5064621;28;20234;-78
2022/07/03 10:03:03;;;;;;;0.30;0.30;;;26.40;63.60;;;26.79;46.58;95311.69;5039054;28;20203;-81
2022/07/03 10:05:37;;;;;;;0.30;0.30;;;26.40;63.70;;;26.87;46.82;95312.94;5063640;28;20222;-79
2022/07/03 10:08:10;;;;;;;0.30;0.30;;;26.50;63.10;;;26.95;46.54;95311.50;5048395;28;20298;-80
2022/07/03 10:10:41;;;;;;;0.30;0.30;;;26.60;63.40;;;27.03;46.55;95302.03;5048741;28;20229;-79
2022/07/03 10:13:09;;;;;;;0.30;0.30;;;26.60;63.60;;;27.10;46.73;95308.66;5068620;28;20198;-80
2022/07/03 10:15:38;;;;;;;0.30;0.30;;;26.70;63.40;;;27.16;46.17;95304.81;5024550;28;20227;-79
2022/07/03 10:18:11;;;;;;;0.30;0.30;;;26.80;62.80;;;27.22;46.03;95307.44;5032771;28;20220;-79
2022/07/03 10:20:46;;;;;;;0.30;0.30;;;26.90;62.80;;;27.24;46.21;95295.28;5041668;28;20246;-79
2022/07/03 10:23:16;;;;;;;0.30;0.30;;;26.90;62.50;;;27.32;45.35;95302.72;5051079;28;20195;-79
2022/07/03 10:25:44;;;;;;;0.30;0.30;;;27.00;62.30;;;27.37;45.26;95307.25;5047962;28;20230;-79
2022/07/03 10:28:14;;;;;;;0.32;0.32;;;27.00;61.70;;;27.40;44.72;95303.97;5054092;28;20193;-79
2022/07/03 10:30:45;;;;;;;0.30;0.30;;;27.10;61.70;;;27.44;45.04;95294.25;5053310;28;20223;-79
2022/07/03 10:33:12;;;;;;;0.30;0.30;;;27.10;61.90;;;27.53;45.08;95302.50;5051451;28;20205;-77
2022/07/03 10:35:44;;;;;;;0.30;0.30;;;27.10;61.90;;;27.61;45.45;95292.94;5053493;28;20226;-81
2022/07/03 10:38:39;;;;;;;0.30;0.30;;;27.20;62.20;;;27.71;44.96;95284.72;5054211;28;20281;-81
2022/07/03 10:46:53;;;;;;;0.30;0.30;;;27.50;61.10;;;27.91;44.71;95283.59;5064096;28;20246;-78
2022/07/03 10:49:27;;;;;;;0.30;0.30;;;27.60;61.70;;;28.00;44.45;95288.34;5068550;28;20672;-80
2022/07/03 10:51:59;;;;;;;0.20;0.20;;;27.60;61.50;;;28.06;43.24;95284.50;5054398;28;20251;-80
2022/07/03 10:54:39;;;;;;;0.30;0.30;;;27.70;60.70;;;28.13;42.80;95286.81;5053624;28;20564;-79